createdAt,value
2018-04-23T00:00:39.941Z,64.50
2018-04-23T00:03:08.297Z,64.70
2018-04-23T00:05:36.510Z,64.70
2018-04-23T00:08:04.609Z,65.20
2018-04-23T00:10:33.901Z,64.80
2018-04-23T00:13:01.981Z,64.60
2018-04-23T00:15:30.053Z,63.80
2018-04-23T00:17:58.400Z,63.30
2018-04-23T00:20:26.490Z,63.00
2018-04-23T00:22:54.562Z,62.30
2018-04-23T00:25:22.628Z,61.80
2018-04-23T00:27:50.699Z,61.30
2018-04-23T00:30:18.770Z,61.00
2018-04-23T00:32:47.045Z,60.40
2018-04-23T00:35:15.121Z,60.50
2018-04-23T00:37:43.186Z,60.90
2018-04-23T00:40:11.272Z,60.60
2018-04-23T00:42:39.329Z,61.00
2018-04-23T00:45:07.405Z,61.40
2018-04-23T00:47:35.496Z,61.70
2018-04-23T00:50:04.308Z,61.20
2018-04-23T00:52:32.413Z,61.10
2018-04-23T00:55:01.657Z,60.60
2018-04-23T00:57:30.524Z,59.80
2018-04-23T00:59:58.617Z,59.80
2018-04-23T01:02:26.972Z,59.60
2018-04-23T01:04:55.046Z,59.30
2018-04-23T01:07:23.421Z,59.10
2018-04-23T01:09:51.796Z,59.00
2018-04-23T01:12:19.869Z,59.10
2018-04-23T01:14:47.965Z,59.10
2018-04-23T01:17:16.057Z,59.10
2018-04-23T01:19:44.899Z,59.10
2018-04-23T01:22:12.997Z,59.10
2018-04-23T01:24:41.330Z,60.00
2018-04-23T01:27:09.398Z,59.50
2018-04-23T01:29:37.475Z,59.90
2018-04-23T01:32:05.663Z,59.80
2018-04-23T01:34:33.765Z,60.00
2018-04-23T01:37:01.809Z,59.90
2018-04-23T01:39:30.079Z,60.60
2018-04-23T01:41:58.152Z,60.60
2018-04-23T01:44:26.224Z,60.40
2018-04-23T01:46:54.304Z,60.60
2018-04-23T01:49:22.961Z,61.40
2018-04-23T01:51:51.001Z,60.50
2018-04-23T01:54:19.854Z,60.60
2018-04-23T01:56:48.053Z,60.50
2018-04-23T01:59:16.916Z,60.70
2018-04-23T02:01:44.984Z,60.70
2018-04-23T02:04:13.044Z,61.40
2018-04-23T02:06:41.124Z,61.40
2018-04-23T02:09:09.726Z,61.40
2018-04-23T02:11:37.780Z,61.70
2018-04-23T02:14:05.843Z,60.80
2018-04-23T02:16:33.933Z,60.80
2018-04-23T02:19:01.993Z,61.40
2018-04-23T02:21:30.242Z,61.40
2018-04-23T02:23:58.336Z,60.50
2018-04-23T02:26:26.425Z,61.00
2018-04-23T02:28:54.500Z,61.30
2018-04-23T02:31:22.605Z,61.40
2018-04-23T02:33:51.436Z,61.30
2018-04-23T02:36:19.505Z,61.20
2018-04-23T02:38:47.921Z,61.30
2018-04-23T02:41:15.993Z,61.30
2018-04-23T02:43:44.064Z,61.70
2018-04-23T02:46:12.649Z,61.50
2018-04-23T02:48:40.716Z,61.70
2018-04-23T02:51:08.770Z,61.80
2018-04-23T02:53:36.939Z,62.10
2018-04-23T02:56:05.013Z,62.30
2018-04-23T02:58:33.116Z,62.10
2018-04-23T03:01:01.983Z,62.90
2018-04-23T03:03:30.056Z,62.90
2018-04-23T03:05:58.126Z,62.10
2018-04-23T03:08:26.370Z,63.00
2018-04-23T03:10:54.700Z,63.70
2018-04-23T03:13:22.825Z,63.70
2018-04-23T03:15:51.252Z,63.90
2018-04-23T03:18:20.145Z,64.10
2018-04-23T03:20:49.012Z,64.50
2018-04-23T03:23:17.076Z,64.50
2018-04-23T03:25:45.145Z,65.10
2018-04-23T03:28:13.243Z,65.30
2018-04-23T03:30:41.627Z,64.80
2018-04-23T03:33:10.513Z,64.70
2018-04-23T03:35:38.753Z,64.70
2018-04-23T03:38:06.833Z,64.30
2018-04-23T03:40:34.938Z,64.80
2018-04-23T03:43:03.797Z,65.70
2018-04-23T03:45:31.953Z,65.50
2018-04-23T03:48:00.018Z,65.90
2018-04-23T03:50:28.097Z,65.70
2018-04-23T03:52:56.521Z,66.10
2018-04-23T03:55:25.401Z,66.60
2018-04-23T03:57:53.491Z,66.40
2018-04-23T04:00:24.729Z,67.20
2018-04-23T04:02:53.563Z,67.20
2018-04-23T04:05:21.645Z,67.20
2018-04-23T04:07:49.769Z,68.00
2018-04-23T04:10:18.659Z,68.10
2018-04-23T04:12:47.715Z,69.20
2018-04-23T04:15:16.293Z,69.10
2018-04-23T04:17:45.498Z,69.40
2018-04-23T04:20:13.665Z,68.80
2018-04-23T04:22:41.835Z,69.10
2018-04-23T04:25:09.941Z,69.20
2018-04-23T04:27:38.900Z,69.50
2018-04-23T04:30:07.072Z,69.40
2018-04-23T04:35:10.285Z,69.40
2018-04-23T04:37:38.352Z,69.40
2018-04-23T04:40:06.421Z,69.10
2018-04-23T04:42:34.509Z,69.20
2018-04-23T04:45:02.562Z,68.70
2018-04-23T04:47:30.644Z,68.30
2018-04-23T04:49:58.733Z,67.10
2018-04-23T04:52:26.805Z,66.30
2018-04-23T04:54:54.880Z,66.20
2018-04-23T04:57:23.226Z,65.90
2018-04-23T04:59:51.341Z,65.20
2018-04-23T05:02:19.416Z,65.00
2018-04-23T05:04:48.362Z,65.60
2018-04-23T05:07:16.433Z,66.10
2018-04-23T05:09:44.505Z,67.90
2018-04-23T05:12:12.913Z,73.60
2018-04-23T05:14:40.969Z,77.00
2018-04-23T05:17:09.029Z,82.00
2018-04-23T05:19:37.824Z,84.60
2018-04-23T05:22:06.910Z,86.50
2018-04-23T05:24:35.625Z,87.20
2018-04-23T05:27:04.324Z,88.40
2018-04-23T05:29:32.761Z,86.70
2018-04-23T05:32:02.234Z,87.00
2018-04-23T05:34:31.681Z,88.00
2018-04-23T05:37:00.472Z,88.00
2018-04-23T05:39:29.289Z,88.10
2018-04-23T05:41:58.552Z,88.60
2018-04-23T05:44:27.276Z,89.30
2018-04-23T05:46:56.764Z,90.10
2018-04-23T05:49:25.364Z,89.70
2018-04-23T05:51:54.933Z,89.70
2018-04-23T05:54:23.434Z,89.20
2018-04-23T05:56:52.140Z,88.20
2018-04-23T05:59:20.827Z,89.30
2018-04-23T06:01:49.573Z,88.10
2018-04-23T06:04:17.965Z,87.70
2018-04-23T06:06:46.841Z,88.70
2018-04-23T06:09:15.733Z,88.60
2018-04-23T06:11:44.148Z,87.80
2018-04-23T06:14:12.529Z,87.20
2018-04-23T06:16:41.193Z,88.40
2018-04-23T06:19:09.797Z,88.80
2018-04-23T06:21:38.208Z,87.80
2018-04-23T06:24:06.762Z,88.20
2018-04-23T06:26:35.617Z,87.50
2018-04-23T06:29:05.115Z,87.40
2018-04-23T06:31:34.024Z,87.40
2018-04-23T06:34:02.838Z,86.90
2018-04-23T06:36:32.813Z,86.10
2018-04-23T06:39:02.684Z,85.90
2018-04-23T06:41:31.273Z,84.40
2018-04-23T06:44:00.097Z,81.60
2018-04-23T06:46:29.029Z,81.50
2018-04-23T06:48:57.673Z,80.10
2018-04-23T06:51:25.740Z,79.90
2018-04-23T06:53:54.429Z,80.60
2018-04-23T06:56:22.533Z,81.90
2018-04-23T06:58:50.598Z,81.20
2018-04-23T07:01:19.364Z,83.00
2018-04-23T07:03:48.340Z,84.00
2018-04-23T07:06:16.741Z,84.50
2018-04-23T07:08:46.382Z,84.60
2018-04-23T07:11:15.192Z,84.40
2018-04-23T07:13:43.747Z,84.50
2018-04-23T07:16:11.800Z,84.00
2018-04-23T07:18:40.364Z,84.80
2018-04-23T07:21:09.045Z,84.40
2018-04-23T07:23:38.031Z,83.00
2018-04-23T07:26:06.932Z,83.60
2018-04-23T07:28:35.485Z,82.20
2018-04-23T07:31:03.585Z,81.90
2018-04-23T07:33:32.496Z,81.90
2018-04-23T07:36:01.310Z,83.40
2018-04-23T07:38:29.897Z,82.30
2018-04-23T07:40:58.676Z,81.40
2018-04-23T07:43:28.144Z,82.80
2018-04-23T07:45:56.981Z,82.60
2018-04-23T07:48:26.490Z,80.80
2018-04-23T07:50:56.295Z,80.50
2018-04-23T07:53:26.361Z,80.30
2018-04-23T07:55:55.148Z,79.60
2018-04-23T07:58:23.817Z,78.00
2018-04-23T08:00:52.671Z,75.60
2018-04-23T08:03:20.823Z,73.30
2018-04-23T08:05:49.080Z,69.40
2018-04-23T08:08:17.252Z,65.00
2018-04-23T08:10:46.253Z,62.50
2018-04-23T08:13:14.330Z,61.80
2018-04-23T08:15:42.811Z,61.40
2018-04-23T08:18:11.994Z,58.40
2018-04-23T08:20:41.196Z,57.10
2018-04-23T08:23:09.979Z,55.40
2018-04-23T08:25:38.409Z,53.40
2018-04-23T08:28:07.274Z,51.40
2018-04-23T08:30:35.948Z,51.90
2018-04-23T08:33:04.817Z,51.50
2018-04-23T08:35:33.966Z,54.10
2018-04-23T08:38:03.008Z,56.20
2018-04-23T08:40:31.824Z,56.50
2018-04-23T08:43:00.854Z,55.00
2018-04-23T08:45:30.372Z,52.10
2018-04-23T08:48:00.187Z,50.60
2018-04-23T08:50:29.136Z,49.30
2018-04-23T08:52:57.724Z,49.20
2018-04-23T08:55:26.528Z,45.70
2018-04-23T08:57:56.415Z,43.70
2018-04-23T09:00:25.315Z,43.80
2018-04-23T09:02:54.108Z,46.60
2018-04-23T09:05:23.015Z,46.00
2018-04-23T09:07:52.599Z,44.30
2018-04-23T09:10:21.480Z,44.30
2018-04-23T09:12:49.663Z,43.40
2018-04-23T09:15:18.482Z,42.20
2018-04-23T09:17:47.959Z,41.50
2018-04-23T09:20:16.865Z,41.40
2018-04-23T09:22:45.620Z,43.10
2018-04-23T09:25:14.586Z,45.10
2018-04-23T09:27:43.537Z,46.40
2018-04-23T09:30:13.015Z,49.20
2018-04-23T09:32:41.531Z,49.20
2018-04-23T09:35:11.208Z,51.80
2018-04-23T09:37:40.253Z,51.70
2018-04-23T09:40:09.829Z,54.40
2018-04-23T09:42:39.088Z,54.40
2018-04-23T09:45:08.129Z,55.50
2018-04-23T09:47:36.814Z,56.90
2018-04-23T09:50:05.749Z,57.50
2018-04-23T09:52:35.316Z,55.30
2018-04-23T09:55:04.149Z,55.20
2018-04-23T09:57:33.001Z,55.00
2018-04-23T10:00:03.174Z,46.60
2018-04-23T10:02:31.949Z,46.50
2018-04-23T10:05:00.121Z,43.70
2018-04-23T10:07:29.372Z,44.10
2018-04-23T10:09:59.197Z,46.00
2018-04-23T10:12:28.661Z,47.20
2018-04-23T10:14:57.549Z,47.20
2018-04-23T10:17:26.270Z,46.90
2018-04-23T10:19:55.788Z,48.80
2018-04-23T10:22:24.665Z,51.60
2018-04-23T10:24:53.237Z,51.60
2018-04-23T10:27:21.294Z,50.50
2018-04-23T10:29:50.273Z,51.80
2018-04-23T10:32:18.372Z,52.70
2018-04-23T10:34:47.277Z,52.40
2018-04-23T10:37:15.317Z,52.80
2018-04-23T10:39:44.133Z,54.00
2018-04-23T10:42:12.922Z,53.90
2018-04-23T10:44:41.813Z,56.30
2018-04-23T10:47:11.510Z,55.70
2018-04-23T10:49:39.671Z,55.60
2018-04-23T10:52:09.106Z,52.30
2018-04-23T10:54:38.612Z,50.90
2018-04-23T10:57:08.222Z,51.40
2018-04-23T10:59:37.720Z,51.20
2018-04-23T11:02:06.559Z,51.10
2018-04-23T11:04:35.503Z,52.40
2018-04-23T11:07:05.101Z,49.90
2018-04-23T11:09:34.097Z,49.90
2018-04-23T11:12:02.657Z,50.70
2018-04-23T11:14:31.784Z,51.50
2018-04-23T11:17:00.692Z,54.70
2018-04-23T11:19:29.617Z,54.70
2018-04-23T11:21:58.221Z,54.80
2018-04-23T11:24:26.328Z,54.60
2018-04-23T11:33:42.061Z,47.40
2018-04-23T11:36:11.761Z,47.90
2018-04-23T11:38:41.506Z,49.90
2018-04-23T11:41:10.373Z,50.70
2018-04-23T11:43:39.152Z,50.60
2018-04-23T11:46:08.802Z,55.40
2018-04-23T11:48:38.520Z,55.80
2018-04-23T11:51:07.211Z,55.70
2018-04-23T11:53:35.324Z,56.50
2018-04-23T11:56:04.749Z,58.10
2018-04-23T11:58:34.221Z,58.10
2018-04-23T12:01:03.941Z,58.10
2018-04-23T12:03:33.347Z,57.70
2018-04-23T12:06:03.053Z,58.20
2018-04-23T12:08:32.405Z,57.10
2018-04-23T12:11:01.035Z,57.00
2018-04-23T12:13:29.908Z,54.50
2018-04-23T12:15:58.008Z,54.40
2018-04-23T12:18:27.412Z,57.50
2018-04-23T12:20:57.016Z,57.40
2018-04-23T12:23:26.790Z,58.50
2018-04-23T12:25:55.896Z,58.50
2018-04-23T12:28:24.387Z,57.90
2018-04-23T12:30:52.952Z,58.00
2018-04-23T12:33:21.061Z,55.80
2018-04-23T12:35:50.945Z,54.10
2018-04-23T12:38:19.037Z,54.10
2018-04-23T12:40:48.480Z,57.40
2018-04-23T12:43:16.824Z,57.40
2018-04-23T12:45:45.660Z,64.30
2018-04-23T12:48:14.397Z,64.20
2018-04-23T12:50:42.937Z,61.60
2018-04-23T12:53:11.869Z,62.10
2018-04-23T12:55:41.465Z,63.20
2018-04-23T12:58:09.542Z,63.10
2018-04-23T13:00:38.341Z,61.10
2018-04-23T13:03:07.745Z,63.80
2018-04-23T13:05:36.616Z,66.90
2018-04-23T13:08:04.686Z,66.90
2018-04-23T13:10:33.595Z,66.90
2018-04-23T13:13:02.234Z,66.90
2018-04-23T13:15:30.821Z,65.20
2018-04-23T13:18:00.528Z,60.50
2018-04-23T13:20:28.631Z,56.30
2018-04-23T13:22:57.517Z,55.90
2018-04-23T13:25:27.449Z,58.70
2018-04-23T13:27:57.441Z,58.60
2018-04-23T13:30:25.538Z,58.60
2018-04-23T13:32:54.241Z,55.80
2018-04-23T13:35:23.813Z,50.30
2018-04-23T13:37:52.909Z,50.30
2018-04-23T13:40:20.999Z,48.60
2018-04-23T13:42:50.552Z,49.30
2018-04-23T13:45:18.642Z,49.30
2018-04-23T13:47:47.449Z,52.00
2018-04-23T13:50:16.259Z,52.80
2018-04-23T13:52:46.136Z,55.70
2018-04-23T13:55:14.200Z,55.60
2018-04-23T13:57:43.820Z,57.30
2018-04-23T14:00:12.793Z,56.50
2018-04-23T14:02:42.320Z,57.70
2018-04-23T14:05:10.385Z,59.40
2018-04-23T14:07:39.060Z,68.90
2018-04-23T14:10:07.157Z,71.70
2018-04-23T14:12:35.241Z,75.80
2018-04-23T14:15:03.340Z,76.50
2018-04-23T14:17:32.313Z,78.60
2018-04-23T14:20:02.821Z,78.70
2018-04-23T14:22:33.453Z,79.10
2018-04-23T14:25:01.537Z,79.10
2018-04-23T14:27:29.963Z,76.30
2018-04-23T14:29:58.038Z,74.20
2018-04-23T14:32:26.109Z,68.50
2018-04-23T14:34:54.429Z,67.20
2018-04-23T14:37:22.480Z,66.40
2018-04-23T14:39:50.541Z,59.30
2018-04-23T14:42:18.863Z,61.00
2018-04-23T14:44:48.641Z,61.00
2018-04-23T14:47:16.701Z,60.90
2018-04-23T14:49:45.821Z,57.90
2018-04-23T14:52:14.921Z,58.50
2018-04-23T14:54:42.989Z,57.80
2018-04-23T14:57:11.038Z,56.10
2018-04-23T14:59:39.105Z,54.00
2018-04-23T15:02:07.205Z,53.10
2018-04-23T15:04:35.245Z,52.80
2018-04-23T15:07:04.033Z,53.00
2018-04-23T15:09:32.852Z,52.10
2018-04-23T15:12:01.805Z,51.70
2018-04-23T15:14:30.501Z,53.10
2018-04-23T15:16:58.573Z,56.80
2018-04-23T15:19:27.297Z,58.90
2018-04-23T15:21:56.647Z,59.00
2018-04-23T15:24:24.717Z,59.90
2018-04-23T15:26:53.853Z,59.70
2018-04-23T15:29:22.862Z,59.80
2018-04-23T15:31:51.752Z,59.80
2018-04-23T15:34:20.645Z,59.90
2018-04-23T15:36:48.714Z,59.90
2018-04-23T15:39:17.914Z,60.00
2018-04-23T15:41:47.525Z,61.50
2018-04-23T15:44:16.398Z,63.40
2018-04-23T15:46:46.590Z,64.30
2018-04-23T15:49:14.672Z,64.30
2018-04-23T15:51:43.700Z,63.50
2018-04-23T15:54:12.544Z,65.10
2018-04-23T15:56:40.685Z,65.00
2018-04-23T15:59:09.096Z,66.20
2018-04-23T16:01:38.033Z,67.50
2018-04-23T16:04:06.892Z,68.20
2018-04-23T16:06:34.989Z,68.20
2018-04-23T16:09:03.812Z,68.60
2018-04-23T16:11:31.906Z,67.60
2018-04-23T16:13:59.973Z,68.40
2018-04-23T16:16:28.405Z,70.50
2018-04-23T16:18:56.489Z,70.50
2018-04-23T16:21:25.355Z,72.60
2018-04-23T16:23:54.157Z,72.60
2018-04-23T16:26:22.217Z,72.70
2018-04-23T16:28:50.289Z,73.10
2018-04-23T16:31:18.637Z,73.90
2018-04-23T16:33:46.734Z,73.50
2018-04-23T16:36:14.870Z,73.30
2018-04-23T16:38:43.289Z,72.90
2018-04-23T16:41:11.381Z,72.10
2018-04-23T16:43:40.265Z,73.80
2018-04-23T16:46:09.357Z,74.90
2018-04-23T16:48:37.617Z,74.80
2018-04-23T16:51:05.709Z,75.80
2018-04-23T16:53:34.073Z,76.30
2018-04-23T16:56:02.161Z,76.00
2018-04-23T16:58:31.020Z,77.00
2018-04-23T17:00:59.178Z,77.00
2018-04-23T17:03:27.993Z,78.40
2018-04-23T17:05:56.056Z,77.60
2018-04-23T17:08:24.252Z,77.60
2018-04-23T17:10:52.344Z,77.60
2018-04-23T17:13:21.424Z,77.40
2018-04-23T17:15:49.510Z,77.50
2018-04-23T17:18:18.366Z,77.40
2018-04-23T17:20:46.978Z,77.30
2018-04-23T17:23:15.829Z,78.00
2018-04-23T17:25:43.945Z,77.90
2018-04-23T17:28:13.029Z,78.20
2018-04-23T17:30:41.916Z,78.30
2018-04-23T17:33:09.979Z,78.10
2018-04-23T17:35:38.955Z,78.80
2018-04-23T17:38:07.065Z,78.90
2018-04-23T17:40:35.919Z,79.50
2018-04-23T17:43:04.009Z,79.10
2018-04-23T17:45:32.097Z,79.50
2018-04-23T17:48:00.948Z,79.10
2018-04-23T17:50:29.409Z,79.00
2018-04-23T17:52:57.497Z,78.90
2018-04-23T17:55:25.621Z,77.60
2018-04-23T17:57:54.929Z,78.00
2018-04-23T18:00:23.177Z,78.00
2018-04-23T18:02:51.256Z,78.60
2018-04-23T18:05:20.124Z,78.90
2018-04-23T18:07:48.196Z,78.80
2018-04-23T18:10:16.281Z,79.30
2018-04-23T18:12:44.385Z,78.80
2018-04-23T18:15:12.474Z,79.00
2018-04-23T18:17:40.563Z,78.70
2018-04-23T18:20:08.869Z,78.20
2018-04-23T18:22:36.940Z,78.20
2018-04-23T18:25:05.033Z,78.90
2018-04-23T18:27:33.980Z,78.80
2018-04-23T18:30:02.858Z,78.90
2018-04-23T18:32:30.933Z,77.70
2018-04-23T18:34:59.018Z,76.30
2018-04-23T18:37:27.423Z,74.60
2018-04-23T18:39:55.516Z,77.30
2018-04-23T18:42:24.340Z,71.20
2018-04-23T18:44:52.436Z,71.10
2018-04-23T18:47:20.530Z,72.70
2018-04-23T18:49:48.657Z,73.00
2018-04-23T18:52:17.805Z,70.30
2018-04-23T18:54:46.665Z,68.40
2018-04-23T18:57:14.766Z,68.40
2018-04-23T18:59:43.965Z,67.20
2018-04-23T19:02:12.858Z,64.90
2018-04-23T19:04:41.716Z,64.70
2018-04-23T19:07:10.094Z,64.60
2018-04-23T19:09:39.689Z,68.30
2018-04-23T19:12:07.773Z,67.80
2018-04-23T19:14:35.915Z,66.50
2018-04-23T19:17:04.005Z,64.90
2018-04-23T19:19:32.228Z,66.50
2018-04-23T19:22:00.387Z,66.40
2018-04-23T19:24:28.429Z,68.60
2018-04-23T19:26:56.512Z,69.00
2018-04-23T19:29:24.585Z,68.80
2018-04-23T19:31:53.551Z,68.80
2018-04-23T19:34:21.653Z,69.20
2018-04-23T19:36:50.133Z,69.70
2018-04-23T19:39:18.225Z,69.50
2018-04-23T19:41:47.117Z,71.60
2018-04-23T19:44:16.012Z,67.70
2018-04-23T19:46:44.873Z,71.70
2018-04-23T19:49:12.950Z,71.50
2018-04-23T19:51:41.295Z,71.90
2018-04-23T19:54:09.413Z,72.40
2018-04-23T19:56:38.392Z,72.80
2018-04-23T19:59:06.481Z,72.30
2018-04-23T20:01:35.373Z,70.80
2018-04-23T20:04:04.540Z,70.10
2018-04-23T20:06:32.621Z,69.90
2018-04-23T20:09:00.680Z,72.10
2018-04-23T20:11:29.089Z,70.90
2018-04-23T20:13:57.928Z,71.70
2018-04-23T20:16:26.012Z,71.70
2018-04-23T20:18:54.429Z,72.20
2018-04-23T20:21:23.416Z,73.90
2018-04-23T20:23:51.494Z,73.90
2018-04-23T20:26:20.354Z,74.20
2018-04-23T20:28:48.420Z,74.10
2018-04-23T20:31:16.518Z,74.50
2018-04-23T20:33:45.691Z,75.20
2018-04-23T20:36:13.786Z,75.20
2018-04-23T20:38:42.659Z,75.40
2018-04-23T20:41:11.013Z,75.30
2018-04-23T20:43:39.077Z,75.90
2018-04-23T20:46:07.192Z,76.30
2018-04-23T20:48:35.747Z,76.40
2018-04-23T20:51:03.810Z,76.70
2018-04-23T20:53:31.901Z,77.20
2018-04-23T20:55:59.989Z,77.10
2018-04-23T20:58:28.048Z,77.80
2018-04-23T21:00:56.105Z,77.60
2018-04-23T21:03:24.188Z,77.60
2018-04-23T21:05:52.299Z,77.70
2018-04-23T21:08:21.161Z,79.20
2018-04-23T21:10:49.567Z,78.40
2018-04-23T21:13:18.420Z,78.40
2018-04-23T21:15:46.477Z,78.40
2018-04-23T21:18:14.857Z,78.70
2018-04-23T21:20:42.951Z,78.50
2018-04-23T21:23:11.017Z,78.80
2018-04-23T21:25:39.345Z,79.30
2018-04-23T21:28:08.232Z,80.00
2018-04-23T21:30:36.248Z,79.80
2018-04-23T21:33:04.624Z,79.80
2018-04-23T21:35:32.696Z,79.80
2018-04-23T21:38:00.790Z,80.00
2018-04-23T21:40:28.896Z,80.40
2018-04-23T21:42:57.741Z,80.40
2018-04-23T21:45:25.800Z,80.30
2018-04-23T21:47:54.077Z,81.00
2018-04-23T21:50:22.160Z,82.00
2018-04-23T21:52:50.216Z,81.60
2018-04-23T21:55:18.298Z,82.10
2018-04-23T21:57:46.369Z,82.10
2018-04-23T22:00:14.849Z,82.00
2018-04-23T22:02:43.332Z,81.90
2018-04-23T22:05:11.310Z,82.00
2018-04-23T22:07:39.393Z,82.40
2018-04-23T22:10:07.942Z,81.70
2018-04-23T22:12:36.004Z,81.60
2018-04-23T22:15:04.388Z,81.50
2018-04-23T22:17:32.813Z,80.50
2018-04-23T22:20:00.894Z,81.10
2018-04-23T22:22:29.746Z,80.80
2018-04-23T22:24:58.022Z,80.80
2018-04-23T22:27:26.081Z,81.60
2018-04-23T22:29:54.171Z,81.40
2018-04-23T22:32:22.765Z,81.20
2018-04-23T22:34:50.861Z,81.00
2018-04-23T22:37:19.719Z,80.40
2018-04-23T22:39:48.044Z,80.20
2018-04-23T22:42:16.864Z,80.20
2018-04-23T22:44:44.949Z,80.20
2018-04-23T22:47:13.037Z,80.60
2018-04-23T22:49:41.117Z,80.40
2018-04-23T22:52:09.160Z,80.20
2018-04-23T22:54:37.760Z,79.40
2018-04-23T22:57:07.352Z,80.20
2018-04-23T22:59:35.441Z,80.20
2018-04-23T23:02:03.616Z,80.30
2018-04-23T23:04:31.688Z,81.10
2018-04-23T23:06:59.799Z,81.00
2018-04-23T23:09:27.845Z,81.30
2018-04-23T23:11:56.705Z,81.70
2018-04-23T23:14:25.006Z,81.50
2018-04-23T23:16:54.072Z,82.10
2018-04-23T23:19:22.177Z,82.10
2018-04-23T23:21:51.013Z,82.60
2018-04-23T23:24:19.125Z,82.50
2018-04-23T23:26:47.209Z,83.00
2018-04-23T23:29:16.069Z,84.00
2018-04-23T23:31:44.233Z,83.90
2018-04-23T23:34:12.313Z,83.60
2018-04-23T23:36:40.377Z,83.60
2018-04-23T23:39:08.654Z,83.80
2018-04-23T23:41:36.712Z,83.90
2018-04-23T23:44:04.781Z,83.70
2018-04-23T23:46:33.114Z,83.20
2018-04-23T23:49:01.969Z,83.20
2018-04-23T23:51:30.073Z,83.00
2018-04-23T23:53:58.399Z,83.50
2018-04-23T23:56:26.485Z,83.40
2018-04-23T23:58:54.565Z,83.00
